Time;durP1;ratioP1;P1;durP2;ratioP2;P2;SDS_P1;SDS_P2;PMS_P1;PMS_P2;Temp;Humidity;BMP_temperature;BMP_pressure;BME280_temperature;BME280_humidity;BME280_pressure;Samples;Min_cycle;Max_cycle;Signal;HPM_P1;HPM_P2
2023/05/26 00:01:46;;;;;;;9.70;2.87;;;;;;;9.82;75.07;102796.03;5051683;28;20029;-84
2023/05/26 00:04:16;;;;;;;7.73;2.63;;;;;;;9.77;75.75;102802.84;5052549;28;20474;-84
2023/05/26 00:06:46;;;;;;;13.50;3.70;;;;;;;9.71;76.62;102813.97;5052517;28;20029;-84
2023/05/26 00:09:14;;;;;;;9.27;2.90;;;;;;;9.66;76.78;102812.13;5051550;28;20381;-84
2023/05/26 00:11:39;;;;;;;8.95;3.17;;;;;;;9.65;74.33;102807.78;5051936;28;20477;-84
2023/05/26 00:14:05;;;;;;;10.17;3.00;;;;;;;9.62;75.43;102818.97;5052374;28;20044;-84
2023/05/26 00:16:30;;;;;;;11.67;3.20;;;;;;;9.57;76.64;102812.81;5051670;28;20447;-84
2023/05/26 00:18:55;;;;;;;9.40;2.83;;;;;;;9.50;77.83;102814.41;5052470;28;20458;-84
2023/05/26 00:21:21;;;;;;;15.07;3.73;;;;;;;9.45;78.01;102825.53;5052320;28;20029;-84
2023/05/26 00:23:46;;;;;;;10.40;3.20;;;;;;;9.39;77.91;102821.97;5050845;28;20108;-84
2023/05/26 00:26:11;;;;;;;10.33;2.80;;;;;;;9.39;76.12;102826.28;5052078;28;20017;-84
2023/05/26 00:28:37;;;;;;;10.87;2.93;;;;;;;9.34;77.81;102823.59;5051846;28;20447;-84
2023/05/26 00:31:03;;;;;;;11.25;3.10;;;;;;;9.30;78.57;102823.47;5051486;28;20131;-84
2023/05/26 00:33:28;;;;;;;7.63;2.83;;;;;;;9.32;77.61;102825.28;5052394;28;20067;-84
2023/05/26 00:35:53;;;;;;;13.13;3.10;;;;;;;9.28;76.92;102826.03;5051753;28;20109;-84
2023/05/26 00:38:19;;;;;;;11.70;3.37;;;;;;;9.22;77.72;102823.31;5051531;28;20017;-84
2023/05/26 00:40:44;;;;;;;5.67;2.13;;;;;;;9.24;77.02;102822.50;5051555;28;20025;-84
2023/05/26 00:43:09;;;;;;;7.73;2.60;;;;;;;9.22;77.80;102831.09;5051524;28;20114;-84
2023/05/26 00:45:36;;;;;;;6.17;2.30;;;;;;;9.20;77.22;102817.22;5051497;28;20068;-83
2023/05/26 00:48:02;;;;;;;7.28;2.50;;;;;;;9.19;77.98;102829.28;5052072;28;20033;-84
2023/05/26 00:50:29;;;;;;;7.90;2.53;;;;;;;9.18;76.89;102824.06;5051384;28;20057;-84
2023/05/26 00:52:55;;;;;;;8.07;2.78;;;;;;;9.16;79.77;102823.16;5051624;28;20032;-84
2023/05/26 00:55:21;;;;;;;9.77;2.70;;;;;;;9.12;79.15;102828.28;5053214;28;20369;-84
2023/05/26 00:57:47;;;;;;;7.97;2.57;;;;;;;9.12;78.62;102830.00;5054887;28;20025;-84
2023/05/26 01:00:13;;;;;;;5.73;2.30;;;;;;;9.14;77.83;102827.44;5055972;28;20434;-84
2023/05/26 01:02:39;;;;;;;8.00;2.60;;;;;;;9.10;78.15;102827.38;5054810;28;20036;-84
2023/05/26 01:05:06;;;;;;;6.72;2.40;;;;;;;9.07;77.59;102824.72;5055058;28;20100;-84
2023/05/26 01:07:32;;;;;;;7.38;2.22;;;;;;;9.09;78.02;102830.81;5055322;28;20482;-84
2023/05/26 01:09:57;;;;;;;4.17;2.20;;;;;;;9.10;77.18;102826.50;5055714;28;20132;-84
2023/05/26 01:12:38;;;;;;;4.07;1.87;;;;;;;9.09;76.98;102827.31;5055060;28;20385;-84
2023/05/26 01:15:09;;;;;;;15.35;3.58;;;;;;;9.00;79.89;102833.19;5055776;28;20044;-84
2023/05/26 01:17:44;;;;;;;11.70;3.17;;;;;;;8.99;79.54;102835.72;5055347;28;20025;-85
2023/05/26 01:20:56;;;;;;;23.10;4.75;;;;;;;8.66;82.32;102832.38;5054716;28;20358;-84
2023/05/26 01:24:02;;;;;;;17.05;3.95;;;;;;;8.71;80.68;102828.19;5048900;28;20120;-84
2023/05/26 01:26:55;;;;;;;20.20;4.22;;;;;;;8.63;82.25;102838.34;5054639;28;20063;-83
2023/05/26 01:29:22;;;;;;;23.58;5.28;;;;;;;8.52;83.12;102837.19;5055137;28;20044;-84
2023/05/26 01:31:47;;;;;;;18.70;4.85;;;;;;;8.57;82.27;102838.19;5054438;28;20074;-83
2023/05/26 01:34:12;;;;;;;21.93;4.87;;;;;;;8.47;83.25;102836.19;5054365;28;20037;-84
2023/05/26 01:36:37;;;;;;;24.03;4.90;;;;;;;8.38;83.68;102833.38;5054708;28;20057;-85
2023/05/26 01:39:04;;;;;;;15.67;4.00;;;;;;;8.46;82.00;102839.59;5055182;28;20025;-85
2023/05/26 01:41:37;;;;;;;19.13;4.70;;;;;;;8.37;83.53;102831.63;5054046;28;20036;-84
2023/05/26 01:44:08;;;;;;;14.32;3.75;;;;;;;8.43;83.15;102835.25;5055153;28;20048;-84
2023/05/26 01:46:45;;;;;;;17.30;3.92;;;;;;;8.44;82.18;102831.81;5064783;28;20044;-84
2023/05/26 01:49:20;;;;;;;20.45;4.53;;;;;;;8.38;83.38;102848.91;5074798;28;20028;-84
2023/05/26 01:51:53;;;;;;;16.85;3.90;;;;;;;8.40;83.00;102839.44;5074427;28;20032;-84
2023/05/26 01:54:21;;;;;;;19.30;4.20;;;;;;;8.37;82.25;102840.25;5074070;28;20017;-84
2023/05/26 01:56:46;;;;;;;17.63;3.65;;;;;;;8.39;82.77;102833.41;5074579;28;20037;-84
2023/05/26 01:59:16;;;;;;;13.17;3.13;;;;;;;8.41;81.59;102841.19;5074788;28;20035;-84
2023/05/26 02:01:42;;;;;;;12.38;3.10;;;;;;;8.40;82.43;102842.03;5073799;28;20028;-84
2023/05/26 02:04:09;;;;;;;12.07;3.00;;;;;;;8.40;82.98;102842.91;5074518;28;20038;-84
2023/05/26 02:06:35;;;;;;;16.55;3.28;;;;;;;8.33;82.88;102841.88;5072780;28;20017;-85
2023/05/26 02:09:00;;;;;;;21.90;4.87;;;;;;;8.19;84.11;102841.53;5073525;28;20025;-84
2023/05/26 02:11:26;;;;;;;14.03;3.47;;;;;;;8.24;83.81;102849.41;5074578;28;20166;-84
2023/05/26 02:13:51;;;;;;;20.67;4.00;;;;;;;8.12;84.39;102857.69;5074053;28;20468;-84
2023/05/26 02:16:16;;;;;;;21.20;4.27;;;;;;;8.09;84.53;102851.56;5073626;28;20154;-83
2023/05/26 02:18:45;;;;;;;24.00;4.97;;;;;;;7.95;84.89;102843.44;5074198;28;20368;-85
2023/05/26 02:21:11;;;;;;;18.67;4.13;;;;;;;8.01;84.32;102854.81;5074258;28;20020;-84
2023/05/26 02:23:36;;;;;;;20.13;4.63;;;;;;;8.00;84.03;102850.47;5073034;28;20380;-84
2023/05/26 02:26:01;;;;;;;15.07;3.73;;;;;;;8.02;84.70;102858.28;5074009;28;20024;-84
2023/05/26 02:28:27;;;;;;;16.77;3.90;;;;;;;8.00;83.63;102854.75;5073934;28;20024;-84
2023/05/26 02:30:52;;;;;;;14.37;3.20;;;;;;;8.04;83.37;102857.50;5072801;28;20120;-84
2023/05/26 02:33:17;;;;;;;13.80;2.97;;;;;;;8.03;84.07;102860.03;5074264;28;20048;-84
2023/05/26 02:35:42;;;;;;;18.40;4.27;;;;;;;8.00;84.47;102857.34;5072353;28;20373;-84
2023/05/26 02:38:08;;;;;;;16.23;3.80;;;;;;;8.01;84.12;102861.69;5073824;28;20095;-83
2023/05/26 02:40:33;;;;;;;21.50;4.53;;;;;;;7.92;84.95;102854.56;5073413;28;20385;-84
2023/05/26 02:42:58;;;;;;;18.17;4.47;;;;;;;7.92;84.95;102858.84;5073332;28;20028;-84
2023/05/26 02:45:24;;;;;;;14.45;3.60;;;;;;;7.93;84.23;102852.84;5073668;28;20078;-84
2023/05/26 02:47:49;;;;;;;14.70;3.53;;;;;;;7.83;83.74;102841.34;5073281;28;20500;-83
2023/05/26 02:50:14;;;;;;;11.88;2.70;;;;;;;7.92;84.24;102853.69;5072765;28;20033;-84
2023/05/26 02:52:42;;;;;;;11.83;3.03;;;;;;;7.87;83.70;102844.09;5073257;28;20020;-83
2023/05/26 02:55:10;;;;;;;8.93;2.83;;;;;;;7.88;83.21;102850.13;5073688;28;20427;-83
2023/05/26 02:57:35;;;;;;;6.93;2.50;;;;;;;7.94;83.45;102857.19;5072196;28;20024;-84
2023/05/26 03:00:00;;;;;;;11.37;2.90;;;;;;;7.91;83.83;102850.22;5073392;28;20429;-84
2023/05/26 03:02:25;;;;;;;17.90;3.53;;;;;;;7.87;84.07;102845.78;5073366;28;20556;-84
2023/05/26 03:04:52;;;;;;;19.97;4.50;;;;;;;7.86;84.06;102849.22;5072635;28;20029;-84
2023/05/26 03:07:17;;;;;;;13.52;3.60;;;;;;;7.83;84.30;102847.41;5073503;28;20028;-84
2023/05/26 03:09:42;;;;;;;16.60;4.25;;;;;;;7.78;85.04;102851.56;5073013;28;20120;-83
2023/05/26 03:12:08;;;;;;;13.77;3.13;;;;;;;7.77;84.50;102846.38;5072382;28;20036;-84
2023/05/26 03:14:33;;;;;;;14.63;3.40;;;;;;;7.78;84.75;102854.16;5072805;28;20109;-83
2023/05/26 03:17:00;;;;;;;11.40;3.27;;;;;;;7.77;83.91;102847.22;5073189;28;20020;-83
2023/05/26 03:19:25;;;;;;;22.65;4.38;;;;;;;7.65;86.11;102849.50;5071853;28;20115;-83
2023/05/26 03:21:51;;;;;;;26.93;5.03;;;;;;;7.55;86.62;102858.66;5072659;28;20166;-82
2023/05/26 03:24:17;;;;;;;20.37;4.73;;;;;;;7.53;86.59;102862.91;5072986;28;20380;-83
2023/05/26 03:26:43;;;;;;;19.07;4.33;;;;;;;7.56;85.84;102861.28;5072003;28;20747;-83
2023/05/26 03:29:08;;;;;;;18.52;4.28;;;;;;;7.55;86.07;102866.41;5072579;28;20344;-83
2023/05/26 03:31:34;;;;;;;13.07;3.40;;;;;;;7.59;84.79;102868.28;5072818;28;20025;-82
2023/05/26 03:33:59;;;;;;;14.10;3.37;;;;;;;7.59;86.06;102865.69;5071912;28;20354;-83
2023/05/26 03:36:24;;;;;;;10.20;2.87;;;;;;;7.59;85.63;102870.84;5072582;28;20020;-84
2023/05/26 03:38:50;;;;;;;9.93;2.92;;;;;;;7.58;85.43;102862.22;5072509;28;20404;-83
2023/05/26 03:41:15;;;;;;;11.65;2.90;;;;;;;7.61;84.80;102876.91;5072169;28;20503;-83
2023/05/26 03:43:40;;;;;;;5.73;2.20;;;;;;;7.63;84.59;102879.56;5072462;28;20066;-83
2023/05/26 03:46:06;;;;;;;10.02;2.67;;;;;;;7.63;84.59;102879.56;5064426;28;20060;-83
2023/05/26 03:48:31;;;;;;;15.67;3.40;;;;;;;7.61;85.65;102886.41;5052412;28;20025;-84
2023/05/26 03:50:56;;;;;;;10.73;2.70;;;;;;;7.64;84.16;102891.66;5052627;28;20028;-84
2023/05/26 03:53:22;;;;;;;6.93;2.37;;;;;;;7.66;84.63;102885.69;5052023;28;20029;-84
2023/05/26 03:55:47;;;;;;;10.77;3.00;;;;;;;7.63;84.84;102885.59;5052215;28;20025;-82
2023/05/26 03:58:15;;;;;;;7.43;2.50;;;;;;;7.63;83.87;102884.75;5052647;28;20021;-82
2023/05/26 04:00:40;;;;;;;5.40;2.25;;;;;;;7.69;83.33;102890.97;5051110;28;20025;-83
2023/05/26 04:03:06;;;;;;;5.13;1.80;;;;;;;7.72;83.47;102880.69;5052664;28;20135;-83
2023/05/26 04:05:31;;;;;;;5.57;2.00;;;;;;;7.78;82.97;102880.00;5052277;28;20032;-81
2023/05/26 04:07:56;;;;;;;5.87;2.00;;;;;;;7.79;83.90;102879.19;5051882;28;20067;-83
2023/05/26 04:10:22;;;;;;;5.00;1.90;;;;;;;7.82;83.12;102883.59;5052217;28;20063;-83
2023/05/26 04:12:47;;;;;;;6.50;2.00;;;;;;;7.79;82.68;102879.19;5051922;28;20059;-82
2023/05/26 04:15:12;;;;;;;6.17;2.20;;;;;;;7.79;83.80;102886.06;5051642;28;20056;-83
2023/05/26 04:17:38;;;;;;;7.37;2.40;;;;;;;7.79;83.01;102883.47;5052049;28;20025;-83
2023/05/26 04:20:10;;;;;;;6.17;2.33;;;;;;;7.81;83.43;102893.03;5052632;28;20056;-83
2023/05/26 04:22:39;;;;;;;7.43;2.55;;;;;;;7.75;84.42;102892.88;5051357;28;20029;-83
2023/05/26 04:25:07;;;;;;;7.15;2.30;;;;;;;7.73;83.53;102897.09;5052086;28;20073;-84
2023/05/26 04:27:32;;;;;;;4.57;2.00;;;;;;;7.75;83.58;102895.44;5051563;28;20040;-82
2023/05/26 04:29:58;;;;;;;4.57;2.00;;;;;;;7.79;82.80;102899.84;5051734;28;20025;-83
2023/05/26 04:32:23;;;;;;;2.88;1.90;;;;;;;7.84;82.61;102894.81;5056195;28;20017;-83
2023/05/26 04:34:49;;;;;;;3.43;2.03;;;;;;;7.89;82.87;102895.84;5056124;28;20044;-83
2023/05/26 04:37:14;;;;;;;8.50;2.43;;;;;;;7.85;85.07;102892.28;5055600;28;20032;-83
2023/05/26 04:39:41;;;;;;;10.93;2.70;;;;;;;7.80;83.72;102899.03;5055896;28;20036;-83
2023/05/26 04:42:06;;;;;;;7.90;2.50;;;;;;;7.81;82.95;102900.78;5056143;28;20033;-83
2023/05/26 04:44:32;;;;;;;5.53;2.63;;;;;;;7.91;82.84;102908.81;5055157;28;20377;-83
2023/05/26 04:47:00;;;;;;;6.78;2.20;;;;;;;7.97;83.38;102906.41;5070084;28;20126;-83
2023/05/26 04:49:25;;;;;;;7.07;2.10;;;;;;;8.00;83.00;102909.06;5075392;28;20029;-83
2023/05/26 04:51:56;;;;;;;7.77;2.37;;;;;;;8.02;83.61;102905.72;5075781;28;20504;-83
2023/05/26 04:54:21;;;;;;;7.97;2.50;;;;;;;8.03;83.81;102902.28;5075922;28;20017;-83
2023/05/26 04:56:47;;;;;;;6.67;2.47;;;;;;;8.05;84.22;102907.50;5074685;28;20032;-84
2023/05/26 04:59:12;;;;;;;8.90;2.63;;;;;;;8.08;83.75;102909.28;5076078;28;20029;-84
2023/05/26 05:01:38;;;;;;;16.07;3.60;;;;;;;8.02;85.40;102910.88;5075715;28;20036;-83
2023/05/26 05:04:21;;;;;;;10.67;3.00;;;;;;;8.07;85.20;102915.28;5075361;28;20464;-83
2023/05/26 05:06:46;;;;;;;13.45;3.72;;;;;;;8.09;85.22;102917.09;5075479;28;20039;-84
2023/05/26 05:09:12;;;;;;;16.13;3.77;;;;;;;8.12;84.88;102926.66;5075606;28;20016;-83
2023/05/26 05:11:40;;;;;;;15.37;3.80;;;;;;;8.08;84.86;102917.94;5074718;28;20036;-83
2023/05/26 05:14:05;;;;;;;14.45;3.40;;;;;;;8.11;84.57;102915.41;5075507;28;20028;-83
2023/05/26 05:16:31;;;;;;;10.50;2.90;;;;;;;8.20;84.32;102922.56;5074914;28;20025;-83
2023/05/26 05:18:56;;;;;;;12.57;3.60;;;;;;;8.28;84.24;102922.78;5074746;28;20029;-82
2023/05/26 05:21:21;;;;;;;15.63;3.30;;;;;;;8.33;84.26;102918.63;5075574;28;20025;-83
2023/05/26 05:23:47;;;;;;;14.00;3.67;;;;;;;8.37;85.05;102917.00;5074962;28;20029;-83
2023/05/26 05:26:12;;;;;;;10.57;3.10;;;;;;;8.46;83.58;102919.81;5074483;28;20060;-83
2023/05/26 05:28:37;;;;;;;14.93;3.27;;;;;;;8.51;84.31;102918.25;5075353;28;20453;-83
2023/05/26 05:31:03;;;;;;;8.53;2.77;;;;;;;8.58;83.83;102927.97;5075239;28;20032;-83
2023/05/26 05:33:28;;;;;;;13.50;3.30;;;;;;;8.61;84.10;102927.16;5074715;28;20066;-83
2023/05/26 05:35:54;;;;;;;13.50;3.67;;;;;;;8.66;83.64;102928.16;5074874;28;20028;-84
2023/05/26 05:38:19;;;;;;;14.70;3.63;;;;;;;8.71;82.62;102918.78;5075200;28;20024;-82
2023/05/26 05:40:44;;;;;;;17.10;3.97;;;;;;;8.78;83.55;102930.19;5073277;28;20490;-83
2023/05/26 05:43:09;;;;;;;21.37;5.03;;;;;;;8.77;83.27;102934.50;5075106;28;20158;-82
2023/05/26 05:45:35;;;;;;;19.30;4.67;;;;;;;8.82;83.51;102932.03;5071532;28;20067;-85
2023/05/26 05:48:00;;;;;;;15.87;4.00;;;;;;;8.91;83.71;102933.94;5055247;28;20032;-83
2023/05/26 05:50:25;;;;;;;19.77;4.30;;;;;;;9.08;81.83;102929.19;5054386;28;20469;-85
2023/05/26 05:52:51;;;;;;;24.27;5.20;;;;;;;9.00;80.99;102938.50;5053999;28;20031;-83
2023/05/26 05:55:17;;;;;;;21.58;4.70;;;;;;;9.06;80.75;102934.34;5054894;28;20049;-84
2023/05/26 05:57:42;;;;;;;25.07;5.83;;;;;;;9.09;80.38;102946.47;5054262;28;20109;-84
2023/05/26 06:00:09;;;;;;;21.40;4.47;;;;;;;9.19;80.02;102942.41;5054024;28;20493;-84
2023/05/26 06:02:35;;;;;;;24.80;5.22;;;;;;;9.27;79.92;102946.94;5054254;28;20024;-84
2023/05/26 06:05:01;;;;;;;23.23;5.03;;;;;;;9.31;79.04;102954.78;5054293;28;20025;-84
2023/05/26 06:07:26;;;;;;;21.63;4.73;;;;;;;9.37;78.99;102952.34;5053762;28;20527;-84
2023/05/26 06:09:51;;;;;;;24.43;6.00;;;;;;;9.41;78.40;102952.44;5053634;28;20469;-83
2023/05/26 06:12:16;;;;;;;20.70;4.93;;;;;;;9.54;78.56;102952.75;5054392;28;20139;-84
2023/05/26 06:14:42;;;;;;;24.17;4.80;;;;;;;9.85;77.02;102971.56;5053645;28;20021;-84
2023/05/26 06:17:07;;;;;;;25.30;5.27;;;;;;;9.83;75.88;102965.47;5054160;28;20119;-83
2023/05/26 06:19:32;;;;;;;23.30;4.83;;;;;;;9.87;75.91;102964.69;5054163;28;20029;-83
2023/05/26 06:21:57;;;;;;;23.60;6.03;;;;;;;9.94;75.28;102976.94;5053336;28;20025;-83
2023/05/26 06:24:23;;;;;;;18.10;4.47;;;;;;;10.01;75.61;102967.59;5054394;28;20028;-83
2023/05/26 06:26:48;;;;;;;21.70;4.90;;;;;;;10.24;74.79;102972.38;5054410;28;20240;-82
2023/05/26 06:29:14;;;;;;;25.77;5.53;;;;;;;10.13;73.90;102977.38;5053518;28;20013;-83
2023/05/26 06:31:40;;;;;;;21.73;4.57;;;;;;;10.44;72.81;102976.28;5053911;28;20100;-83
2023/05/26 06:34:05;;;;;;;25.87;4.90;;;;;;;10.71;72.12;102969.88;5054259;28;20442;-81
2023/05/26 06:36:30;;;;;;;22.87;5.20;;;;;;;10.84;71.02;102965.75;5052450;28;20017;-79
2023/05/26 06:38:56;;;;;;;24.60;4.87;;;;;;;10.91;70.49;102970.22;5054119;28;20021;-82
2023/05/26 06:41:21;;;;;;;22.87;4.70;;;;;;;11.16;69.96;102962.81;5054160;28;20466;-86
2023/05/26 06:43:46;;;;;;;21.27;5.07;;;;;;;11.25;68.98;102955.19;5053135;28;20160;-82
2023/05/26 06:46:12;;;;;;;22.67;5.10;;;;;;;11.13;68.86;102960.19;5053928;28;20041;-83
2023/05/26 06:48:37;;;;;;;26.37;5.67;;;;;;;10.69;70.23;102975.88;5053922;28;20037;-84
2023/05/26 06:51:02;;;;;;;18.30;4.90;;;;;;;10.95;71.28;102966.81;5053137;28;20162;-84
2023/05/26 06:53:28;;;;;;;19.50;4.43;;;;;;;11.27;69.13;102961.28;5053035;28;20032;-84
2023/05/26 06:55:53;;;;;;;23.00;5.07;;;;;;;11.41;68.95;102965.81;5052733;28;20017;-85
2023/05/26 06:58:18;;;;;;;20.97;4.73;;;;;;;11.61;68.41;102965.22;5054116;28;20017;-86
2023/05/26 07:01:01;;;;;;;20.00;4.70;;;;;;;11.79;67.75;102975.03;5053169;28;20389;-84
2023/05/26 07:03:27;;;;;;;20.27;4.63;;;;;;;11.63;69.10;102968.72;5052829;28;20032;-85
2023/05/26 07:05:53;;;;;;;19.97;4.13;;;;;;;11.68;68.21;102969.69;5053068;28;20222;-86
2023/05/26 07:08:19;;;;;;;19.83;4.90;;;;;;;11.68;67.73;102969.69;5053515;28;20071;-86
2023/05/26 07:10:44;;;;;;;20.27;4.80;;;;;;;11.43;68.68;102972.78;5052524;28;20434;-85
2023/05/26 07:13:09;;;;;;;20.07;4.80;;;;;;;11.51;69.10;102975.50;5053519;28;20025;-86
2023/05/26 07:15:35;;;;;;;20.37;4.33;;;;;;;11.61;69.10;102975.63;5054868;28;20025;-86
2023/05/26 07:18:00;;;;;;;20.47;4.70;;;;;;;11.72;67.64;102968.84;5052937;28;20025;-86
2023/05/26 07:20:25;;;;;;;20.40;4.53;;;;;;;11.36;68.46;102973.53;5053017;28;20087;-86
2023/05/26 07:22:51;;;;;;;20.67;5.20;;;;;;;11.31;69.21;102964.81;5052875;28;20385;-85
2023/05/26 07:25:19;;;;;;;21.93;4.57;;;;;;;11.44;70.39;102969.34;5052570;28;20075;-86
2023/05/26 07:27:44;;;;;;;16.67;4.57;;;;;;;11.67;69.42;102971.41;5052965;28;20393;-85
2023/05/26 07:30:10;;;;;;;15.40;3.80;;;;;;;11.94;69.02;102972.63;5053416;28;20025;-86
2023/05/26 07:32:35;;;;;;;19.47;4.00;;;;;;;12.20;67.28;102978.19;5052176;28;20024;-85
2023/05/26 07:35:01;;;;;;;24.73;5.27;;;;;;;11.88;66.11;102980.34;5052531;28;20283;-84
2023/05/26 07:37:26;;;;;;;18.37;4.30;;;;;;;11.90;67.30;102984.75;5053088;28;20452;-85
2023/05/26 07:39:51;;;;;;;18.43;4.60;;;;;;;12.02;67.22;102975.38;5051163;28;20036;-84
2023/05/26 07:42:17;;;;;;;19.97;4.20;;;;;;;11.94;67.62;102976.94;5052533;28;20036;-84
2023/05/26 07:44:42;;;;;;;18.23;4.90;;;;;;;12.04;66.55;102976.28;5052694;28;20051;-83
2023/05/26 07:47:07;;;;;;;16.90;4.13;;;;;;;12.11;65.35;102972.88;5067363;28;20396;-84
2023/05/26 07:49:32;;;;;;;20.20;4.77;;;;;;;12.09;66.01;102981.53;5071950;28;20107;-83
2023/05/26 07:51:58;;;;;;;20.87;5.17;;;;;;;11.94;65.79;102972.63;5072991;28;20033;-83
2023/05/26 07:54:26;;;;;;;19.03;4.57;;;;;;;11.96;66.45;102985.66;5072044;28;20381;-83
2023/05/26 07:56:51;;;;;;;18.13;4.63;;;;;;;12.03;65.87;102980.59;5071974;28;20036;-83
2023/05/26 07:59:16;;;;;;;17.47;4.43;;;;;;;12.20;65.24;102974.75;5072151;28;20032;-82
2023/05/26 08:01:42;;;;;;;20.67;4.70;;;;;;;12.40;64.89;102969.75;5072108;28;20028;-82
2023/05/26 08:04:07;;;;;;;20.80;4.97;;;;;;;12.43;64.34;102982.81;5072481;28;20024;-83
2023/05/26 08:06:32;;;;;;;16.63;4.23;;;;;;;12.63;65.08;102980.44;5071440;28;20082;-83
2023/05/26 08:09:02;;;;;;;15.63;4.00;;;;;;;12.83;63.94;102969.31;5073007;28;20041;-84
2023/05/26 08:11:27;;;;;;;17.38;4.10;;;;;;;13.02;63.81;102970.38;5072734;28;20123;-84
2023/05/26 08:13:52;;;;;;;15.23;3.63;;;;;;;13.25;63.18;102980.09;5071274;28;20112;-84
2023/05/26 08:16:18;;;;;;;17.00;4.03;;;;;;;13.35;59.09;102989.75;5072569;28;20481;-84
2023/05/26 08:18:43;;;;;;;22.23;4.70;;;;;;;13.05;59.22;102975.59;5071595;28;20016;-85
2023/05/26 08:21:11;;;;;;;15.80;3.87;;;;;;;13.07;60.80;102981.69;5071960;28;20024;-85
2023/05/26 08:23:37;;;;;;;18.60;4.30;;;;;;;13.06;59.26;102971.25;5072543;28;20017;-85
2023/05/26 08:26:02;;;;;;;18.03;4.17;;;;;;;12.97;60.82;102959.00;5072778;28;20592;-84
2023/05/26 08:28:28;;;;;;;17.93;4.70;;;;;;;12.86;58.42;102978.88;5071728;28;20558;-84
2023/05/26 08:30:53;;;;;;;20.53;4.57;;;;;;;12.78;59.24;102965.78;5071835;28;20025;-85
2023/05/26 08:33:18;;;;;;;17.83;4.40;;;;;;;12.67;59.27;102965.69;5071876;28;20085;-83
2023/05/26 08:35:44;;;;;;;19.20;4.87;;;;;;;12.43;60.24;102977.59;5071857;28;20021;-85
2023/05/26 08:38:09;;;;;;;18.03;4.27;;;;;;;12.71;61.91;102959.66;5072373;28;20044;-85
2023/05/26 08:40:34;;;;;;;17.23;3.87;;;;;;;13.10;59.82;102960.88;5071652;28;20078;-80
2023/05/26 08:43:08;;;;;;;17.40;4.30;;;;;;;13.19;60.16;102964.41;5071893;28;20480;-83
2023/05/26 08:45:37;;;;;;;16.90;4.25;;;;;;;13.43;60.64;102968.97;5071648;28;20079;-84
2023/05/26 08:48:06;;;;;;;15.60;3.97;;;;;;;13.58;54.99;102971.66;5072831;28;20353;-85
2023/05/26 08:50:32;;;;;;;16.13;4.38;;;;;;;13.43;55.13;102969.81;5071417;28;20415;-86
2023/05/26 08:53:00;;;;;;;16.43;4.30;;;;;;;13.53;57.39;102972.50;5073042;28;20107;-86
2023/05/26 08:55:26;;;;;;;12.48;3.47;;;;;;;13.72;57.62;102955.22;5071757;28;20028;-83
2023/05/26 08:57:53;;;;;;;15.88;3.85;;;;;;;13.97;56.16;102958.81;5071923;28;20024;-86
2023/05/26 09:00:19;;;;;;;14.05;3.60;;;;;;;14.15;57.46;102967.59;5072306;28;20028;-86
2023/05/26 09:02:45;;;;;;;20.15;4.40;;;;;;;14.21;56.21;102965.00;5071039;28;20017;-86
2023/05/26 09:05:13;;;;;;;13.80;3.87;;;;;;;14.40;55.71;102975.53;5072924;28;20094;-82
2023/05/26 09:07:39;;;;;;;17.17;4.15;;;;;;;14.46;54.85;102958.13;5072132;28;20413;-82
2023/05/26 09:10:20;;;;;;;13.83;3.27;;;;;;;14.72;55.00;102965.16;5071163;28;20119;-82
2023/05/26 09:12:48;;;;;;;11.88;3.15;;;;;;;14.98;53.32;102959.94;5071147;28;20485;-83
2023/05/26 09:15:21;;;;;;;13.50;3.50;;;;;;;14.99;51.67;102968.66;5071943;28;20055;-82
2023/05/26 09:17:48;;;;;;;16.77;4.10;;;;;;;14.98;49.73;102965.16;5073824;28;20025;-83
2023/05/26 09:20:13;;;;;;;13.70;3.90;;;;;;;14.81;52.39;102959.94;5075658;28;20389;-82
2023/05/26 09:22:39;;;;;;;16.33;3.77;;;;;;;14.98;53.14;102961.69;5075261;28;20034;-83
2023/05/26 09:25:04;;;;;;;17.87;3.80;;;;;;;14.80;49.14;102966.06;5074573;28;20057;-82
2023/05/26 09:27:30;;;;;;;18.63;5.10;;;;;;;14.08;50.53;102973.66;5075044;28;20028;-82
2023/05/26 09:30:00;;;;;;;17.77;4.13;;;;;;;14.37;51.21;102981.59;5074704;28;20039;-81
2023/05/26 09:32:29;;;;;;;14.93;3.88;;;;;;;14.63;53.58;102965.09;5074581;28;20035;-83
2023/05/26 09:34:59;;;;;;;12.30;3.70;;;;;;;15.06;54.01;102967.78;5075423;28;20021;-83
2023/05/26 09:37:29;;;;;;;16.65;4.30;;;;;;;15.04;49.79;102972.13;5075373;28;20028;-81
2023/05/26 09:40:14;;;;;;;14.57;3.70;;;;;;;15.08;51.30;102962.56;5073920;28;20034;-81
2023/05/26 09:42:50;;;;;;;18.45;4.03;;;;;;;15.19;50.46;102967.78;5075116;28;20020;-82
2023/05/26 09:45:16;;;;;;;13.63;3.53;;;;;;;15.34;48.57;102970.41;5074420;28;20035;-80
2023/05/26 09:47:41;;;;;;;13.50;3.93;;;;;;;15.52;50.33;102966.00;5074677;28;20099;-82
2023/05/26 09:50:07;;;;;;;17.67;4.00;;;;;;;15.58;48.48;102966.84;5074856;28;20028;-82
2023/05/26 09:52:33;;;;;;;16.57;4.50;;;;;;;15.23;47.81;102972.16;5073912;28;20499;-81
2023/05/26 09:54:59;;;;;;;16.63;4.03;;;;;;;15.17;48.90;102964.28;5075191;28;20091;-81
2023/05/26 09:57:27;;;;;;;13.87;4.03;;;;;;;15.49;49.10;102965.97;5075107;28;20124;-82
2023/05/26 09:59:54;;;;;;;14.82;4.18;;;;;;;15.54;47.70;102957.25;5073631;28;20472;-85
2023/05/26 10:02:20;;;;;;;;;;;;;;;15.79;48.36;102957.19;5075083;28;20023;-85
2023/05/26 10:04:50;;;;;;;14.27;4.05;;;;;;;16.05;48.04;102959.72;5074813;28;20284;-85
2023/05/26 10:07:21;;;;;;;14.45;3.95;;;;;;;16.26;48.60;102955.28;5074188;28;20051;-88
2023/05/26 10:09:52;;;;;;;17.35;4.22;;;;;;;16.13;45.71;102956.22;5074067;28;20036;-84
2023/05/26 10:12:22;;;;;;;19.08;4.80;;;;;;;15.49;47.14;102960.75;5075102;28;20054;-87
2023/05/26 10:14:48;;;;;;;12.85;3.60;;;;;;;15.91;48.35;102951.09;5073759;28;20097;-86
2023/05/26 10:17:14;;;;;;;14.93;4.28;;;;;;;15.89;45.83;102947.59;5074791;28;20028;-86
2023/05/26 10:19:39;;;;;;;15.80;4.20;;;;;;;15.94;47.38;102947.56;5073952;28;20060;-87
2023/05/26 10:22:11;;;;;;;16.93;4.53;;;;;;;16.12;46.40;102938.75;5074272;28;20025;-85
2023/05/26 10:24:46;;;;;;;12.95;3.92;;;;;;;16.37;46.34;102944.72;5074470;28;20024;-83
2023/05/26 10:27:47;;;;;;;13.90;3.63;;;;;;;16.56;47.91;102936.72;5073319;28;20028;-86
2023/05/26 10:30:16;;;;;;;12.25;3.55;;;;;;;16.93;48.16;102936.47;5074139;28;20067;-86
2023/05/26 10:32:51;;;;;;;7.40;2.50;;;;;;;17.34;46.87;102942.22;5074408;28;20024;-86
2023/05/26 10:35:19;;;;;;;11.35;3.10;;;;;;;17.62;47.63;102939.31;5074321;28;20057;-86
2023/05/26 10:37:48;;;;;;;15.00;3.70;;;;;;;17.65;42.29;102931.38;5073867;28;20457;-86
2023/05/26 10:40:44;;;;;;;15.55;4.55;;;;;;;17.18;42.24;102937.13;5074190;28;20111;-85
2023/05/26 10:43:26;;;;;;;15.55;4.07;;;;;;;17.23;44.14;102935.34;5057041;28;20029;-86
2023/05/26 10:45:57;;;;;;;12.70;3.60;;;;;;;17.37;44.86;102937.81;5068669;28;20059;-86
2023/05/26 10:48:34;;;;;;;11.07;3.35;;;;;;;17.69;43.30;102936.59;5053946;28;20029;-86
2023/05/26 10:51:00;;;;;;;11.52;3.78;;;;;;;17.99;42.50;102936.25;5054030;28;20029;-86
2023/05/26 10:53:48;;;;;;;13.00;3.83;;;;;;;17.60;39.82;102940.22;5054312;28;20032;-86
2023/05/26 10:56:14;;;;;;;14.65;4.00;;;;;;;17.16;41.85;102932.78;5052729;28;20040;-86
2023/05/26 10:58:45;;;;;;;11.10;3.58;;;;;;;17.31;42.10;102927.41;5053741;28;20025;-82
2023/05/26 11:01:16;;;;;;;12.55;3.60;;;;;;;17.45;41.34;102920.22;5052549;28;20434;-86
2023/05/26 11:03:44;;;;;;;9.55;3.17;;;;;;;17.80;42.65;102927.69;5052953;28;20078;-87
2023/05/26 11:06:11;;;;;;;13.30;3.45;;;;;;;17.85;39.15;102923.28;5053970;28;20025;-85
2023/05/26 11:08:48;;;;;;;14.90;3.60;;;;;;;17.83;41.58;102927.66;5053327;28;20037;-85
2023/05/26 11:11:28;;;;;;;13.15;3.55;;;;;;;17.98;40.17;102921.38;5052724;28;20021;-86
2023/05/26 11:14:03;;;;;;;12.15;3.92;;;;;;;18.04;42.15;102927.41;5053059;28;20021;-86
2023/05/26 11:16:33;;;;;;;10.95;3.05;;;;;;;18.40;41.48;102928.69;5052312;28;20136;-85
2023/05/26 11:19:06;;;;;;;7.88;2.95;;;;;;;18.71;38.90;102925.56;5053217;28;20028;-85
2023/05/26 11:21:35;;;;;;;13.70;3.80;;;;;;;18.46;38.28;102918.09;5053072;28;20020;-85
2023/05/26 11:24:02;;;;;;;15.35;3.83;;;;;;;18.18;39.09;102915.84;5051969;28;20103;-85
2023/05/26 11:26:31;;;;;;;9.75;3.03;;;;;;;18.41;38.74;102927.78;5053104;28;20377;-85